Accueil
METAR-TAF:

METAR-TAF

Aéroports :

Aéroport de Milan-Linate

Milan, Italie

latitude: 45-26N, longitude: 009-17E, altitude: 107 m

Observation

Le bulletin a été fait il y a 48 minutes, à 03:50 UTC
Vent 5 kt de est/sud-est
Température 23°C
Humidité 65%
Pression 1017 hPa
Visibilité 10 km ou plus

METAR: LIML 060350Z AUTO 12005KT 9999 NCD 23/16 Q1017

Heure: 06:38 (04:38 UTC)

Prévision

Le bulletin a été fait il y a 5 heures et 38 minutes, à 23:00 UTC
Prévision valable du 06 à 00 UTC au 06 à 24 UTC
Vent 8 kt de est
Visibilité 10 km ou plus
Nuages épars à une hauteur de 4000 ft
Temporairement
du 06 à 00 UTC au 06 à 07 UTC
orage, pluie

TAF: LIML 052300Z 0600/0624 09008KT 9999 SCT040 TEMPO 0600/0607 TSRA

Observations et prévisions météorologiques de plus de 4000 aéroports (messages METAR et TAF).

Les stations disponibles sont représentées par des disques jaunes et rouges sur la carte.

Passer la souris dessus pour voir le nom de la station.

Cliquer dessus pour voir les observations et prévisions météorologiques.

Pour changer de carte: cliquez sur les boutons verts avec une croix noire pour zoomer, sur le bouton vert avec un tiret pour effectuer un zoom arrière, ou sur les flèches vertes pour les cartes adjacentes.


METAR-TAF: